createdAt,value
2019-04-05T00:01:51.964Z,6.60
2019-04-05T00:04:20.964Z,6.60
2019-04-05T00:06:49.923Z,6.60
2019-04-05T00:09:18.955Z,6.70
2019-04-05T00:11:47.984Z,6.60
2019-04-05T00:14:16.857Z,6.60
2019-04-05T00:16:45.716Z,6.50
2019-04-05T00:19:14.616Z,6.60
2019-04-05T00:21:43.520Z,6.50
2019-04-05T00:24:12.483Z,6.50
2019-04-05T00:26:41.367Z,6.60
2019-04-05T00:29:10.298Z,6.50
2019-04-05T00:31:39.238Z,6.50
2019-04-05T00:34:08.092Z,6.50
2019-04-05T00:36:36.931Z,6.50
2019-04-05T00:39:08.510Z,6.50
2019-04-05T00:41:38.403Z,6.50
2019-04-05T00:44:07.369Z,6.50
2019-04-05T00:46:36.329Z,6.50
2019-04-05T00:49:05.327Z,6.50
2019-04-05T00:51:34.627Z,6.50
2019-04-05T00:54:03.519Z,6.50
2019-04-05T00:56:32.440Z,6.50
2019-04-05T00:59:01.445Z,6.50
2019-04-05T01:01:30.487Z,6.50
2019-04-05T01:03:59.430Z,6.50
2019-04-05T01:06:28.395Z,6.50
2019-04-05T01:08:57.383Z,6.50
2019-04-05T01:11:26.285Z,6.50
2019-04-05T01:13:55.370Z,6.50
2019-04-05T01:16:24.368Z,6.50
2019-04-05T01:18:53.321Z,6.50
2019-04-05T01:21:25.209Z,6.50
2019-04-05T01:23:56.324Z,6.50
2019-04-05T01:26:25.434Z,6.50
2019-04-05T01:28:54.429Z,6.40
2019-04-05T01:31:23.434Z,6.50
2019-04-05T01:33:52.484Z,6.50
2019-04-05T01:36:21.443Z,6.50
2019-04-05T01:38:50.341Z,6.50
2019-04-05T01:41:19.351Z,6.50
2019-04-05T01:43:48.297Z,6.50
2019-04-05T01:46:17.326Z,6.50
2019-04-05T01:48:46.352Z,6.50
2019-04-05T01:51:15.552Z,6.50
2019-04-05T01:53:45.011Z,6.60
2019-04-05T01:56:13.918Z,6.60
2019-04-05T01:58:42.966Z,6.60
2019-04-05T02:01:11.950Z,6.60
2019-04-05T02:03:41.072Z,6.60
2019-04-05T02:06:10.075Z,6.60
2019-04-05T02:08:39.226Z,6.60
2019-04-05T02:11:08.225Z,6.50
2019-04-05T02:13:37.171Z,6.60
2019-04-05T02:16:06.989Z,6.60
2019-04-05T02:18:36.184Z,6.60
2019-04-05T02:21:05.316Z,6.50
2019-04-05T02:23:34.298Z,6.50
2019-04-05T02:26:03.318Z,6.60
2019-04-05T02:28:32.279Z,6.50
2019-04-05T02:31:01.401Z,6.50
2019-04-05T02:33:30.348Z,6.50
2019-04-05T02:35:59.491Z,6.50
2019-04-05T02:38:28.620Z,6.50
2019-04-05T02:41:00.702Z,6.50
2019-04-05T02:43:32.699Z,6.50
2019-04-05T02:46:02.544Z,6.50
2019-04-05T02:48:34.854Z,6.50
2019-04-05T02:51:06.170Z,6.50
2019-04-05T02:53:36.645Z,6.40
2019-04-05T02:56:06.652Z,6.50
2019-04-05T02:58:36.764Z,6.50
2019-04-05T03:01:05.867Z,6.50
2019-04-05T03:03:35.390Z,6.50
2019-04-05T03:06:06.960Z,6.50
2019-04-05T03:08:36.936Z,6.40
2019-04-05T03:11:09.732Z,6.40
2019-04-05T03:13:46.912Z,6.40
2019-04-05T03:16:19.636Z,6.40
2019-04-05T03:18:55.166Z,6.40
2019-04-05T03:21:28.174Z,6.40
2019-04-05T03:24:00.455Z,6.30
2019-04-05T03:26:32.623Z,6.40
2019-04-05T03:29:05.407Z,6.40
2019-04-05T03:31:34.841Z,6.40
2019-04-05T03:34:04.205Z,6.40
2019-04-05T03:36:33.324Z,6.40
2019-04-05T03:39:03.057Z,6.40
2019-04-05T03:41:32.296Z,6.40
2019-04-05T03:44:01.762Z,6.40
2019-04-05T03:46:31.943Z,6.40
2019-04-05T03:49:01.412Z,6.40
2019-04-05T03:51:30.735Z,6.40
2019-04-05T03:53:59.729Z,6.40
2019-04-05T03:56:28.793Z,6.40
2019-04-05T03:58:57.710Z,6.40
2019-04-05T04:01:26.725Z,6.40
2019-04-05T04:03:55.683Z,6.40
2019-04-05T04:06:24.721Z,6.40
2019-04-05T04:08:53.796Z,6.80
2019-04-05T04:11:22.910Z,6.80
2019-04-05T04:13:52.143Z,6.80
2019-04-05T04:16:21.819Z,6.60
2019-04-05T04:18:50.843Z,6.50
2019-04-05T04:21:27.664Z,6.40
2019-04-05T04:23:56.669Z,6.30
2019-04-05T04:26:25.701Z,6.30
2019-04-05T04:28:54.792Z,6.30
2019-04-05T04:31:23.833Z,6.30
2019-04-05T04:33:53.463Z,6.30
2019-04-05T04:36:22.573Z,6.20
2019-04-05T04:38:51.625Z,6.20
2019-04-05T04:41:20.902Z,6.30
2019-04-05T04:43:49.911Z,6.30
2019-04-05T04:46:19.600Z,6.30
2019-04-05T04:48:49.196Z,6.20
2019-04-05T04:51:18.738Z,6.30
2019-04-05T04:53:48.253Z,6.20
2019-04-05T04:56:17.651Z,6.20
2019-04-05T04:58:46.675Z,6.30
2019-04-05T05:01:15.747Z,6.30
2019-04-05T05:03:44.763Z,6.30
2019-04-05T05:06:13.753Z,6.20
2019-04-05T05:08:42.803Z,6.30
2019-04-05T05:11:14.896Z,6.30
2019-04-05T05:13:42.653Z,6.30
2019-04-05T05:16:11.969Z,6.30
2019-04-05T05:18:41.800Z,6.30
2019-04-05T05:21:10.844Z,6.30
2019-04-05T05:23:40.323Z,6.30
2019-04-05T05:26:09.343Z,6.30
2019-04-05T05:28:38.327Z,6.30
2019-04-05T05:31:07.420Z,6.30
2019-04-05T05:33:36.343Z,6.30
2019-04-05T05:36:05.445Z,6.30
2019-04-05T05:38:34.539Z,6.30
2019-04-05T05:41:03.563Z,6.30
2019-04-05T05:43:32.513Z,6.30
2019-04-05T05:46:01.632Z,6.40
2019-04-05T05:48:31.118Z,6.40
2019-04-05T05:51:00.570Z,6.30
2019-04-05T05:53:29.736Z,6.40
2019-04-05T05:55:58.647Z,6.40
2019-04-05T05:58:27.687Z,6.40
2019-04-05T06:00:56.587Z,6.40
2019-04-05T06:03:25.508Z,6.40
2019-04-05T06:06:04.057Z,6.40
2019-04-05T06:08:25.108Z,6.40
2019-04-05T06:10:54.094Z,6.50
2019-04-05T06:13:23.069Z,6.50
2019-04-05T06:15:52.127Z,6.50
2019-04-05T06:18:20.967Z,6.50
2019-04-05T06:20:49.944Z,6.50
2019-04-05T06:23:18.909Z,6.50
2019-04-05T06:25:47.929Z,6.50
2019-04-05T06:28:16.978Z,6.60
2019-04-05T06:30:46.153Z,6.60
2019-04-05T06:33:16.040Z,6.60
2019-04-05T06:35:45.128Z,6.70
2019-04-05T06:38:14.016Z,6.70
2019-04-05T06:40:42.921Z,6.70
2019-04-05T06:43:11.871Z,6.70
2019-04-05T06:45:40.836Z,6.80
2019-04-05T06:48:19.186Z,6.80
2019-04-05T06:50:40.463Z,6.80
2019-04-05T06:53:09.327Z,6.80
2019-04-05T06:55:38.318Z,6.80
2019-04-05T06:58:10.233Z,6.80
2019-04-05T07:00:37.943Z,6.80
2019-04-05T07:03:06.968Z,6.90
2019-04-05T07:05:35.806Z,6.90
2019-04-05T07:08:04.884Z,6.90
2019-04-05T07:10:33.898Z,6.90
2019-04-05T07:13:02.899Z,6.90
2019-04-05T07:15:32.123Z,6.90
2019-04-05T07:18:01.424Z,6.90
2019-04-05T07:20:30.431Z,6.90
2019-04-05T07:22:59.363Z,6.80
2019-04-05T07:25:29.480Z,6.80
2019-04-05T07:27:58.794Z,6.90
2019-04-05T07:30:28.912Z,6.80
2019-04-05T07:32:58.215Z,6.90
2019-04-05T07:35:33.188Z,6.90
2019-04-05T07:37:57.899Z,6.80
2019-04-05T07:40:26.878Z,6.90
2019-04-05T07:42:56.386Z,6.80
2019-04-05T07:45:25.319Z,6.80
2019-04-05T07:47:54.193Z,6.80
2019-04-05T07:50:23.055Z,6.90
2019-04-05T07:52:51.907Z,6.80
2019-04-05T07:55:20.860Z,6.80
2019-04-05T07:57:50.162Z,6.80
2019-04-05T08:00:49.482Z,6.80
2019-04-05T08:03:18.886Z,6.80
2019-04-05T08:05:48.717Z,6.80
2019-04-05T08:08:36.592Z,6.80
2019-04-05T08:11:05.750Z,6.80
2019-04-05T08:13:36.473Z,6.80
2019-04-05T08:16:05.565Z,6.80
2019-04-05T08:18:34.755Z,6.80
2019-04-05T08:21:03.761Z,6.80
2019-04-05T08:23:32.643Z,6.80
2019-04-05T08:26:01.555Z,6.80
2019-04-05T08:28:30.459Z,6.80
2019-04-05T08:30:59.600Z,6.80
2019-04-05T08:33:28.511Z,6.80
2019-04-05T08:35:57.419Z,6.80
2019-04-05T08:38:26.380Z,6.80
2019-04-05T08:40:55.502Z,6.80
2019-04-05T08:43:24.393Z,6.80
2019-04-05T08:45:53.387Z,6.90
2019-04-05T08:48:22.335Z,7.00
2019-04-05T08:50:51.646Z,7.10
2019-04-05T08:53:20.679Z,7.10
2019-04-05T08:55:49.651Z,7.00
2019-04-05T08:58:18.654Z,7.10
2019-04-05T09:00:47.796Z,7.20
2019-04-05T09:03:16.839Z,7.30
2019-04-05T09:05:45.864Z,7.30
2019-04-05T09:08:14.818Z,7.30
2019-04-05T09:10:43.895Z,7.30
2019-04-05T09:13:13.031Z,7.30
2019-04-05T09:15:41.893Z,7.30
2019-04-05T09:18:10.976Z,7.30
2019-04-05T09:20:39.898Z,7.40
2019-04-05T09:23:08.812Z,7.40
2019-04-05T09:25:37.835Z,7.40
2019-04-05T09:28:06.784Z,7.40
2019-04-05T09:30:35.839Z,7.30
2019-04-05T09:33:04.931Z,7.30
2019-04-05T09:35:33.961Z,7.30
2019-04-05T09:38:02.898Z,7.30
2019-04-05T09:40:31.895Z,7.20
2019-04-05T09:43:00.965Z,7.30
2019-04-05T09:45:29.976Z,7.20
2019-04-05T09:47:58.907Z,7.30
2019-04-05T09:50:28.059Z,7.30
2019-04-05T09:52:57.008Z,7.30
2019-04-05T09:55:26.031Z,7.30
2019-04-05T09:57:55.004Z,7.30
2019-04-05T10:00:25.629Z,7.40
2019-04-05T10:02:54.683Z,7.40
2019-04-05T10:05:23.967Z,7.40
2019-04-05T10:07:55.416Z,7.50
2019-04-05T10:10:23.963Z,7.40
2019-04-05T10:12:52.931Z,7.50
2019-04-05T10:15:22.136Z,7.50
2019-04-05T10:17:51.586Z,7.40
2019-04-05T10:20:20.651Z,7.40
2019-04-05T10:22:49.707Z,7.50
2019-04-05T10:25:18.571Z,7.40
2019-04-05T10:27:47.627Z,7.40
2019-04-05T10:30:18.125Z,7.40
2019-04-05T10:32:47.252Z,7.30
2019-04-05T10:35:16.369Z,7.30
2019-04-05T10:37:45.358Z,7.40
2019-04-05T10:40:14.699Z,7.40
2019-04-05T10:42:43.812Z,7.40
2019-04-05T10:45:13.524Z,7.50
2019-04-05T10:47:42.647Z,7.40
2019-04-05T10:50:13.051Z,7.40
2019-04-05T10:52:42.156Z,7.50
2019-04-05T10:55:11.217Z,7.50
2019-04-05T10:57:40.190Z,7.50
2019-04-05T11:00:15.536Z,7.50
2019-04-05T11:02:44.642Z,7.50
2019-04-05T11:05:14.523Z,7.60
2019-04-05T11:07:43.547Z,7.60
2019-04-05T11:10:14.429Z,7.60
2019-04-05T11:12:43.491Z,7.60
2019-04-05T11:15:15.143Z,7.60
2019-04-05T11:17:44.219Z,7.60
2019-04-05T11:20:21.219Z,7.60
2019-04-05T11:22:46.482Z,7.60
2019-04-05T11:25:14.922Z,7.60
2019-04-05T11:27:43.932Z,7.70
2019-04-05T11:30:14.015Z,7.60
2019-04-05T11:32:43.446Z,7.60
2019-04-05T11:35:14.964Z,7.60
2019-04-05T11:37:43.516Z,7.70
2019-04-05T11:40:12.983Z,7.60
2019-04-05T11:42:42.879Z,7.60
2019-04-05T11:45:12.352Z,7.60
2019-04-05T11:47:42.606Z,7.60
2019-04-05T11:50:12.547Z,7.70
2019-04-05T11:52:41.639Z,7.70
2019-04-05T11:55:11.073Z,7.70
2019-04-05T11:57:41.437Z,7.80
2019-04-05T12:00:15.511Z,7.80
2019-04-05T12:02:48.293Z,7.70
2019-04-05T12:05:20.290Z,7.70
2019-04-05T12:07:48.954Z,7.80
2019-04-05T12:10:19.447Z,7.80
2019-04-05T12:12:48.714Z,7.80
2019-04-05T12:15:17.942Z,7.90
2019-04-05T12:17:47.059Z,7.80
2019-04-05T12:20:16.518Z,7.90
2019-04-05T12:22:45.691Z,7.90
2019-04-05T12:25:15.055Z,7.90
2019-04-05T12:27:44.030Z,7.90
2019-04-05T12:30:16.533Z,7.90
2019-04-05T12:32:46.657Z,7.90
2019-04-05T12:35:16.332Z,7.90
2019-04-05T12:37:50.606Z,7.90
2019-04-05T12:40:16.679Z,7.80
2019-04-05T12:42:45.764Z,7.90
2019-04-05T12:45:15.551Z,7.90
2019-04-05T12:47:45.684Z,8.00
2019-04-05T12:50:15.920Z,8.00
2019-04-05T12:52:44.959Z,8.00
2019-04-05T12:55:15.243Z,8.00
2019-04-05T12:57:44.394Z,8.10
2019-04-05T13:00:15.647Z,8.10
2019-04-05T13:02:44.759Z,8.10
2019-04-05T13:05:14.021Z,8.00
2019-04-05T13:07:43.034Z,8.10
2019-04-05T13:10:12.278Z,8.10
2019-04-05T13:12:41.332Z,8.10
2019-04-05T13:15:16.604Z,8.20
2019-04-05T13:17:42.014Z,8.10
2019-04-05T13:20:11.221Z,8.10
2019-04-05T13:22:40.238Z,8.10
2019-04-05T13:25:11.100Z,8.10
2019-04-05T13:27:41.608Z,8.10
2019-04-05T13:30:11.403Z,8.10
2019-04-05T13:32:40.310Z,8.00
2019-04-05T13:35:10.244Z,8.00
2019-04-05T13:37:39.171Z,8.10
2019-04-05T13:40:09.439Z,8.10
2019-04-05T13:42:38.378Z,8.20
2019-04-05T13:45:07.798Z,8.10
2019-04-05T13:47:38.837Z,8.10
2019-04-05T13:50:11.342Z,8.10
2019-04-05T13:52:42.122Z,8.10
2019-04-05T13:55:11.515Z,8.00
2019-04-05T13:57:41.229Z,8.00
2019-04-05T14:00:12.179Z,8.00
2019-04-05T14:02:41.171Z,8.00
2019-04-05T14:05:10.569Z,8.00
2019-04-05T14:07:39.559Z,8.00
2019-04-05T14:10:12.273Z,8.00
2019-04-05T14:12:40.957Z,8.10
2019-04-05T14:15:11.291Z,8.10
2019-04-05T14:17:44.129Z,8.00
2019-04-05T14:20:12.242Z,8.00
2019-04-05T14:22:41.163Z,8.10
2019-04-05T14:25:10.612Z,8.00
2019-04-05T14:27:39.682Z,8.10
2019-04-05T14:30:09.167Z,8.10
2019-04-05T14:32:38.010Z,8.10
2019-04-05T14:35:08.236Z,8.10
2019-04-05T14:37:37.552Z,8.10
2019-04-05T14:40:07.646Z,8.10
2019-04-05T14:42:36.664Z,8.00
2019-04-05T14:45:06.566Z,8.00
2019-04-05T14:47:35.639Z,8.00
2019-04-05T14:50:05.725Z,8.00
2019-04-05T14:52:34.770Z,7.90
2019-04-05T14:55:03.858Z,8.00
2019-04-05T14:57:35.632Z,7.90
2019-04-05T15:00:03.917Z,7.90
2019-04-05T15:02:32.895Z,7.90
2019-04-05T15:05:01.771Z,7.90
2019-04-05T15:07:30.719Z,7.90
2019-04-05T15:09:59.695Z,7.90
2019-04-05T15:12:29.534Z,7.90
2019-04-05T15:14:58.550Z,7.90
2019-04-05T15:17:27.681Z,7.80
2019-04-05T15:19:56.757Z,7.80
2019-04-05T15:22:27.634Z,7.80
2019-04-05T15:24:56.314Z,7.80
2019-04-05T15:27:25.270Z,7.80
2019-04-05T15:29:55.812Z,7.80
2019-04-05T15:32:26.113Z,7.80
2019-04-05T15:34:56.545Z,7.80
2019-04-05T15:37:25.914Z,7.80
2019-04-05T15:39:54.959Z,7.80
2019-04-05T15:42:24.010Z,7.80
2019-04-05T15:44:52.900Z,7.80
2019-04-05T15:47:23.448Z,7.80
2019-04-05T15:49:52.898Z,7.90
2019-04-05T15:52:21.933Z,7.90
2019-04-05T15:54:50.921Z,7.90
2019-04-05T15:57:19.893Z,7.80
2019-04-05T15:59:48.924Z,7.80
2019-04-05T16:02:18.082Z,7.80
2019-04-05T16:04:46.963Z,7.70
2019-04-05T16:07:15.922Z,7.70
2019-04-05T16:09:44.958Z,7.70
2019-04-05T16:12:13.898Z,7.80
2019-04-05T16:14:42.832Z,7.80
2019-04-05T16:17:12.620Z,7.80
2019-04-05T16:19:41.703Z,7.80
2019-04-05T16:22:10.621Z,7.80
2019-04-05T16:24:39.471Z,7.80
2019-04-05T16:27:08.539Z,7.80
2019-04-05T16:29:37.478Z,7.80
2019-04-05T16:32:06.587Z,7.90
2019-04-05T16:34:35.615Z,7.90
2019-04-05T16:37:05.169Z,7.90
2019-04-05T16:39:34.566Z,7.80
2019-04-05T16:42:03.724Z,7.80
2019-04-05T16:44:33.410Z,7.80
2019-04-05T16:47:02.804Z,7.80
2019-04-05T16:49:31.995Z,7.80
2019-04-05T16:52:01.021Z,7.80
2019-04-05T16:54:30.944Z,7.80
2019-04-05T16:57:00.539Z,7.80
2019-04-05T16:59:29.805Z,7.80
2019-04-05T17:01:59.212Z,7.80
2019-04-05T17:04:28.553Z,7.80
2019-04-05T17:06:57.778Z,7.70
2019-04-05T17:09:26.838Z,7.80
2019-04-05T17:11:55.856Z,7.70
2019-04-05T17:14:24.868Z,7.80
2019-04-05T17:16:55.563Z,7.80
2019-04-05T17:19:24.772Z,7.80
2019-04-05T17:21:54.709Z,7.80
2019-04-05T17:24:24.051Z,7.70
2019-04-05T17:26:53.043Z,7.70
2019-04-05T17:29:22.206Z,7.70
2019-04-05T17:31:51.058Z,7.70
2019-04-05T17:34:20.035Z,7.70
2019-04-05T17:36:49.034Z,7.60
2019-04-05T17:39:18.037Z,7.70
2019-04-05T17:41:46.970Z,7.70
2019-04-05T17:44:16.078Z,7.70
2019-04-05T17:46:45.171Z,7.70
2019-04-05T17:49:14.190Z,7.60
2019-04-05T17:51:43.323Z,7.70
2019-04-05T17:54:12.730Z,7.60
2019-04-05T17:56:41.792Z,7.60
2019-04-05T17:59:10.986Z,7.60
2019-04-05T18:01:40.150Z,7.70
2019-04-05T18:04:09.448Z,7.70
2019-04-05T18:06:38.399Z,7.70
2019-04-05T18:09:08.094Z,7.80
2019-04-05T18:11:38.380Z,7.80
2019-04-05T18:14:08.624Z,7.80
2019-04-05T18:16:38.018Z,7.80
2019-04-05T18:19:08.423Z,7.80
2019-04-05T18:21:40.692Z,7.80
2019-04-05T18:24:10.584Z,7.80
2019-04-05T18:26:39.784Z,7.80
2019-04-05T18:29:08.783Z,7.80
2019-04-05T18:31:37.807Z,7.80
2019-04-05T18:34:07.059Z,7.90
2019-04-05T18:36:36.455Z,7.90
2019-04-05T18:39:08.691Z,7.90
2019-04-05T18:41:38.004Z,7.90
2019-04-05T18:44:07.072Z,7.90
2019-04-05T18:46:36.060Z,7.90
2019-04-05T18:49:05.091Z,7.80
2019-04-05T18:51:34.680Z,7.80
2019-04-05T18:54:03.687Z,7.80
2019-04-05T18:56:33.910Z,7.80
2019-04-05T18:59:03.350Z,7.80
2019-04-05T19:01:33.477Z,7.90
2019-04-05T19:04:05.257Z,7.80
2019-04-05T19:06:33.179Z,7.80
2019-04-05T19:09:04.786Z,7.80
2019-04-05T19:11:35.359Z,7.90
2019-04-05T19:14:04.615Z,7.90
2019-04-05T19:16:34.128Z,7.90
2019-04-05T19:19:03.158Z,7.90
2019-04-05T19:21:32.654Z,7.90
2019-04-05T19:24:01.782Z,7.90
2019-04-05T19:26:30.821Z,7.90
2019-04-05T19:28:59.833Z,7.90
2019-04-05T19:49:04.961Z,8.00
2019-04-05T19:51:34.052Z,8.00
2019-04-05T19:54:03.051Z,8.00
2019-04-05T19:56:32.070Z,8.00
2019-04-05T19:59:01.099Z,8.00
2019-04-05T20:01:30.746Z,8.00
2019-04-05T20:04:00.017Z,8.00
2019-04-05T20:06:29.135Z,8.10
2019-04-05T20:08:58.075Z,8.00
2019-04-05T20:11:27.218Z,8.00
2019-04-05T20:13:56.169Z,8.00
2019-04-05T20:16:44.266Z,7.90
2019-04-05T20:19:13.250Z,7.90
2019-04-05T20:21:42.244Z,7.90
2019-04-05T20:24:14.245Z,7.90
2019-04-05T20:26:41.786Z,7.90
2019-04-05T20:29:10.674Z,8.10
2019-04-05T20:31:39.631Z,8.00
2019-04-05T20:34:08.611Z,8.00
2019-04-05T20:36:37.515Z,8.00
2019-04-05T20:39:07.548Z,7.90
2019-04-05T20:41:36.491Z,8.00
2019-04-05T20:44:05.572Z,7.90
2019-04-05T20:46:34.534Z,7.90
2019-04-05T20:49:03.484Z,7.90
2019-04-05T20:51:32.387Z,8.00
2019-04-05T20:54:01.314Z,8.00
2019-04-05T20:56:30.285Z,8.00
2019-04-05T20:58:59.190Z,8.00
2019-04-05T21:01:28.219Z,7.90
2019-04-05T21:03:57.257Z,7.80
2019-04-05T21:06:26.169Z,7.90
2019-04-05T21:08:55.076Z,7.90
2019-04-05T21:11:24.023Z,7.90
2019-04-05T21:13:53.043Z,7.90
2019-04-05T21:16:22.070Z,7.90
2019-04-05T21:18:51.111Z,7.90
2019-04-05T21:21:20.019Z,7.90
2019-04-05T21:23:49.085Z,7.90
2019-04-05T21:26:18.199Z,7.80
2019-04-05T21:28:48.103Z,7.80
2019-04-05T21:31:16.961Z,7.80
2019-04-05T21:33:45.887Z,7.70
2019-04-05T21:36:14.715Z,7.70
2019-04-05T21:38:43.552Z,7.70
2019-04-05T21:41:13.279Z,7.60
2019-04-05T21:43:42.176Z,7.60
2019-04-05T21:46:11.027Z,7.60
2019-04-05T21:48:39.836Z,7.50
2019-04-05T21:51:08.799Z,7.50
2019-04-05T21:53:37.622Z,7.50
2019-04-05T21:56:06.740Z,7.40
2019-04-05T21:58:35.656Z,7.40
2019-04-05T22:01:07.390Z,7.40
2019-04-05T22:03:36.342Z,7.40
2019-04-05T22:06:05.571Z,7.30
2019-04-05T22:08:34.532Z,7.30
2019-04-05T22:11:03.384Z,7.20
2019-04-05T22:13:32.276Z,7.20
2019-04-05T22:16:01.148Z,7.10
2019-04-05T22:18:30.119Z,7.10
2019-04-05T22:20:58.959Z,7.10
2019-04-05T22:23:27.810Z,7.10
2019-04-05T22:25:56.719Z,7.10
2019-04-05T22:28:25.625Z,7.20
2019-04-05T22:30:54.454Z,7.30
2019-04-05T22:33:23.279Z,7.20
2019-04-05T22:35:52.135Z,7.30
2019-04-05T22:38:21.047Z,7.30
2019-04-05T22:40:49.979Z,7.30
2019-04-05T22:43:18.882Z,7.30
2019-04-05T22:45:47.813Z,7.40
2019-04-05T22:48:16.734Z,7.40
2019-04-05T22:50:45.579Z,7.40
2019-04-05T22:53:14.407Z,7.30
2019-04-05T22:55:43.262Z,7.40
2019-04-05T22:58:12.095Z,7.40
2019-04-05T23:00:40.922Z,7.30
2019-04-05T23:03:09.785Z,7.20
2019-04-05T23:05:38.703Z,7.20
2019-04-05T23:08:07.623Z,7.20
2019-04-05T23:10:36.534Z,7.20
2019-04-05T23:13:05.504Z,7.20
2019-04-05T23:15:34.427Z,7.20
2019-04-05T23:18:03.375Z,7.20
2019-04-05T23:20:32.276Z,7.20
2019-04-05T23:23:01.190Z,7.30
2019-04-05T23:25:30.004Z,7.30
2019-04-05T23:27:58.920Z,7.30
2019-04-05T23:30:28.995Z,7.30
2019-04-05T23:32:57.894Z,7.30
2019-04-05T23:35:26.775Z,7.40
2019-04-05T23:37:55.734Z,7.30
2019-04-05T23:40:24.554Z,7.30
2019-04-05T23:42:53.421Z,7.30
2019-04-05T23:45:22.239Z,7.30
2019-04-05T23:47:51.167Z,7.30
2019-04-05T23:50:20.062Z,7.30
2019-04-05T23:52:49.290Z,7.30
2019-04-05T23:55:18.255Z,7.40
2019-04-05T23:57:47.205Z,7.30
